Parkway South

*Note: All times are displayed in the local standard time of the station location.
**Rain - Equipment is designed to accurately record liquid precipitation; under conditions when precipitation is not in liquid form, the data displayed may not properly reflect rainfall values.

Date Max Temp
(°C)
Min Temp
(°C)
Avg Temp
(°C)
Rain (mm) Avg RH (%)
Sat, Feb 17, 2018 -0.3 -6.5 -2.5 0.0 68.0
Fri, Feb 16, 2018 4.6 -5.3 0.4 0.0 78.8
Thu, Feb 15, 2018 10.7 3.5 7.1 0.2 94.0
Wed, Feb 14, 2018 5.5 -4.9 3.3 7.8 74.0
Tue, Feb 13, 2018 0.7 -13.9 -6.3 0.2 73.2
Mon, Feb 12, 2018 -1.2 -8.3 -3.8 0.2 70.4
Sun, Feb 11, 2018 1.0 -3.8 -1.4 4.0 90.7
DateTime Avg Temp (°C) Rain (mm) RH (%)
Sun, Feb 18, 2018 04:00 -1.8 0.0 86.0
Sun, Feb 18, 2018 03:00 -1.3 0.0 83.8
Sun, Feb 18, 2018 02:00 -1.4 0.0 86.5
Sun, Feb 18, 2018 01:00 -1.5 0.0 87.0
Sun, Feb 18, 2018 00:00 -1.2 0.0 83.3
Sat, Feb 17, 2018 23:00 -1.1 0.0 75.5
Sat, Feb 17, 2018 22:00 -1.1 0.0 68.0
Sat, Feb 17, 2018 21:00 -1.3 0.0 66.5
Sat, Feb 17, 2018 20:00 -1.5 0.0 66.0
Sat, Feb 17, 2018 19:00 -1.2 0.0 60.8
Sat, Feb 17, 2018 18:00 -1.0 0.0 55.8
Sat, Feb 17, 2018 17:00 -1.0 0.0 54.5
Sat, Feb 17, 2018 16:00 -0.8 0.0 55.0
Sat, Feb 17, 2018 15:00 -0.8 0.0 55.8
Sat, Feb 17, 2018 14:00 -0.7 0.0 56.8
Sat, Feb 17, 2018 13:00 -0.6 0.0 57.8
Sat, Feb 17, 2018 12:00 -0.6 0.0 59.3
Sat, Feb 17, 2018 11:00 -1.1 0.0 61.0
Sat, Feb 17, 2018 10:00 -1.9 0.0 65.0
Sat, Feb 17, 2018 09:00 -3.3 0.0 71.5
Sat, Feb 17, 2018 08:00 -4.7 0.0 77.8
Sat, Feb 17, 2018 07:00 -5.0 0.0 75.3
Sat, Feb 17, 2018 06:00 -4.9 0.0 74.8
Sat, Feb 17, 2018 05:00 -5.0 0.0 76.5
Sat, Feb 17, 2018 04:00 -4.9 0.0 77.8
Sat, Feb 17, 2018 03:00 -5.9 0.0 80.3
Sat, Feb 17, 2018 02:00 -6.1 0.0 79.8
Sat, Feb 17, 2018 01:00 -5.6 0.0 77.3
Sat, Feb 17, 2018 00:00 -5.2 0.0 74.3
Fri, Feb 16, 2018 23:00 -4.6 0.0 73.8
Fri, Feb 16, 2018 22:00 -3.6 0.0 66.5
Fri, Feb 16, 2018 21:00 -3.4 0.0 64.8
Fri, Feb 16, 2018 20:00 -3.0 0.0 61.5
Fri, Feb 16, 2018 19:00 -2.7 0.0 60.5
Fri, Feb 16, 2018 18:00 -1.9 0.0 60.5
Fri, Feb 16, 2018 17:00 -0.4 0.0 60.0
Fri, Feb 16, 2018 16:00 1.0 0.0 61.0
Fri, Feb 16, 2018 15:00 1.7 0.0 60.3
Fri, Feb 16, 2018 14:00 1.7 0.0 63.5
Fri, Feb 16, 2018 13:00 2.1 0.0 70.3
Fri, Feb 16, 2018 12:00 2.0 0.0 80.0
Fri, Feb 16, 2018 11:00 1.0 0.0 90.5
Fri, Feb 16, 2018 10:00 1.7 0.0 86.3
Fri, Feb 16, 2018 09:00 1.5 0.0 87.0
Fri, Feb 16, 2018 08:00 1.8 0.0 88.8
Fri, Feb 16, 2018 07:00 2.2 0.0 90.3
Fri, Feb 16, 2018 06:00 2.1 0.0 92.8
Fri, Feb 16, 2018 05:00 1.7 0.0 100.0


asterix Register now to access more data! asterix